To NAV CANADA Home Page Login to a new session Search on AWWS site Disclaimer Vers la page française équivalente Tips FAQ What's new on the site To the Forecasts and Observations / NOTAM section To "File a Flight Plan" website Publications and other links Update of the User's profile FIC Telephone Numbers My Weather Data Folder Route Weather Data Regional Weather Data Local Weather Data To the Forecasts and Observations / NOTAM section
Request Generated 05/19/2019 at 14:23:19 UTC . Weather information available at that time is displayed.

METAR/TAF

If you find any discrepancies between the coded METAR/TAF and the plain language METAR/TAF please use the coded METAR/TAF. LWIS bulletins are not decoded in plain language.

CALGARY/SPRINGBANK/AB    (show WxCam)

SPECI CYBW 191414Z AUTO 16012KT 9SM SCT007 BKN011 02/01 A3005 RMK SLP216=
SPECI
LOCATION
CYBW - CALGARY/SPRINGBANK/AB
DATE - TIME
19 MAY 2019 - 1414 UTC
WIND
160 TRUE @ 12  KNOTS
VISIBILITY
9 STAT.  MILES
RUNWAY VISUAL RANGE
WEATHER
CLOUDINESS
SCATTERED CLOUDS (3/8 - 4/8) 700  FT
BROKEN CLOUDS (5/8 - 7/8) 1100  FT
TEMP / DEWPOINT
2 C / 1 C
ALTIMETER
30.05 IN HG
RECENT WEATHER
WIND SHEAR

METAR CYBW 191400Z AUTO 15009KT 9SM BKN007 OVC011 03/02 A3004 RMK SLP213=
METAR
LOCATION
CYBW - CALGARY/SPRINGBANK/AB
DATE - TIME
19 MAY 2019 - 1400 UTC
WIND
150 TRUE @ 9  KNOTS
VISIBILITY
9 STAT.  MILES
RUNWAY VISUAL RANGE
WEATHER
CLOUDINESS
BROKEN CLOUDS (5/8 - 7/8) 700  FT
OVERCAST 1100  FT
TEMP / DEWPOINT
3 C / 2 C
ALTIMETER
30.04 IN HG
RECENT WEATHER
WIND SHEAR

SPECI CYBW 191329Z AUTO 14010KT 9SM OVC005 01/01 A3004 RMK SLP213=
SPECI
LOCATION
CYBW - CALGARY/SPRINGBANK/AB
DATE - TIME
19 MAY 2019 - 1329 UTC
WIND
140 TRUE @ 10  KNOTS
VISIBILITY
9 STAT.  MILES
RUNWAY VISUAL RANGE
WEATHER
CLOUDINESS
OVERCAST 500  FT
TEMP / DEWPOINT
1 C / 1 C
ALTIMETER
30.04 IN HG
RECENT WEATHER
WIND SHEAR

SPECI CYBW 191324Z AUTO 14010KT 7SM OVC003 01/01 A3004 RMK SLP212=
SPECI
LOCATION
CYBW - CALGARY/SPRINGBANK/AB
DATE - TIME
19 MAY 2019 - 1324 UTC
WIND
140 TRUE @ 10  KNOTS
VISIBILITY
7 STAT.  MILES
RUNWAY VISUAL RANGE
WEATHER
CLOUDINESS
OVERCAST 300  FT
TEMP / DEWPOINT
1 C / 1 C
ALTIMETER
30.04 IN HG
RECENT WEATHER
WIND SHEAR

SPECI CYBW 191320Z AUTO 14010KT 3SM BR OVC003 01/01 A3004 RMK SLP213=
SPECI
LOCATION
CYBW - CALGARY/SPRINGBANK/AB
DATE - TIME
19 MAY 2019 - 1320 UTC
WIND
140 TRUE @ 10  KNOTS
VISIBILITY
3 STAT.  MILES
RUNWAY VISUAL RANGE
WEATHER
MIST
CLOUDINESS
OVERCAST 300  FT
TEMP / DEWPOINT
1 C / 1 C
ALTIMETER
30.04 IN HG
RECENT WEATHER
WIND SHEAR

METAR CYBW 191300Z AUTO 15009KT 2 1/4SM R35/4000VP6000FT/ BR OVC003 02/01 A3003 MK VIS VRB 1 1/4-3 ICG PAST HR SLP211=
METAR
LOCATION
CYBW - CALGARY/SPRINGBANK/AB
DATE - TIME
19 MAY 2019 - 1300 UTC
WIND
150 TRUE @ 9  KNOTS
VISIBILITY
2 1/4 STAT.  MILES
RUNWAY VISUAL RANGE
RUNWAY 35
MIN RANGE 4000  FT
MAX RANGE 6000 +  FT
WEATHER
MIST
CLOUDINESS
OVERCAST 300  FT
TEMP / DEWPOINT
2 C / 1 C
ALTIMETER
30.03 IN HG
RECENT WEATHER
WIND SHEAR

SPECI CYBW 191253Z AUTO 15011KT 1SM R35/4500VP6000FT/ BR OVC003 01/01 A3003 RMK IS VRB 5/8-3 ICG PAST HR SLP210=
SPECI
LOCATION
CYBW - CALGARY/SPRINGBANK/AB
DATE - TIME
19 MAY 2019 - 1253 UTC
WIND
150 TRUE @ 11  KNOTS
VISIBILITY
1 STAT.  MILE
RUNWAY VISUAL RANGE
RUNWAY 35
MIN RANGE 4500  FT
MAX RANGE 6000 +  FT
WEATHER
MIST
CLOUDINESS
OVERCAST 300  FT
TEMP / DEWPOINT
1 C / 1 C
ALTIMETER
30.03 IN HG
RECENT WEATHER
WIND SHEAR

SPECI CYBW 191227Z AUTO 15011KT 1/2SM R35/3000FT/N FG VV003 01/01 A3003 RMK ICG AST HR SLP211=
SPECI
LOCATION
CYBW - CALGARY/SPRINGBANK/AB
DATE - TIME
19 MAY 2019 - 1227 UTC
WIND
150 TRUE @ 11  KNOTS
VISIBILITY
1/2 STAT.  MILE
RUNWAY VISUAL RANGE
RUNWAY 35
RANGE 3000  FT
TENDENCY NO CHANGE
WEATHER
FOG
CLOUDINESS
VERTICAL VISIBILITY 300  FT
TEMP / DEWPOINT
1 C / 1 C
ALTIMETER
30.03 IN HG
RECENT WEATHER
WIND SHEAR

SPECI CYBW 191226Z AUTO 15011KT 1/2SM R35/2800FT/N FG VV003 01/01 A3003 RMK ICG NTMT SLP211=
SPECI
LOCATION
CYBW - CALGARY/SPRINGBANK/AB
DATE - TIME
19 MAY 2019 - 1226 UTC
WIND
150 TRUE @ 11  KNOTS
VISIBILITY
1/2 STAT.  MILE
RUNWAY VISUAL RANGE
RUNWAY 35
RANGE 2800  FT
TENDENCY NO CHANGE
WEATHER
FOG
CLOUDINESS
VERTICAL VISIBILITY 300  FT
TEMP / DEWPOINT
1 C / 1 C
ALTIMETER
30.03 IN HG
RECENT WEATHER
WIND SHEAR

SPECI CYBW 191221Z AUTO 15009KT 1/4SM R35/1800FT/N FG VV003 01/01 A3003 RMK ICG NTMT SLP210=
SPECI
LOCATION
CYBW - CALGARY/SPRINGBANK/AB
DATE - TIME
19 MAY 2019 - 1221 UTC
WIND
150 TRUE @ 9  KNOTS
VISIBILITY
1/4 STAT.  MILE
RUNWAY VISUAL RANGE
RUNWAY 35
RANGE 1800  FT
TENDENCY NO CHANGE
WEATHER
FOG
CLOUDINESS
VERTICAL VISIBILITY 300  FT
TEMP / DEWPOINT
1 C / 1 C
ALTIMETER
30.03 IN HG
RECENT WEATHER
WIND SHEAR

SPECI CYBW 191211Z AUTO 14011KT 1/8SM R35/1600FT/N FG VV002 01/01 A3003 RMK ICG LP211=
SPECI
LOCATION
CYBW - CALGARY/SPRINGBANK/AB
DATE - TIME
19 MAY 2019 - 1211 UTC
WIND
140 TRUE @ 11  KNOTS
VISIBILITY
1/8 STAT.  MILE
RUNWAY VISUAL RANGE
RUNWAY 35
RANGE 1600  FT
TENDENCY NO CHANGE
WEATHER
FOG
CLOUDINESS
VERTICAL VISIBILITY 200  FT
TEMP / DEWPOINT
1 C / 1 C
ALTIMETER
30.03 IN HG
RECENT WEATHER
WIND SHEAR

METAR CYBW 191200Z AUTO 15011KT 1/8SM R35/1400FT/N FG VV002 01/01 A3003 RMK SLP 1=
METAR
LOCATION
CYBW - CALGARY/SPRINGBANK/AB
DATE - TIME
19 MAY 2019 - 1200 UTC
WIND
150 TRUE @ 11  KNOTS
VISIBILITY
1/8 STAT.  MILE
RUNWAY VISUAL RANGE
RUNWAY 35
RANGE 1400  FT
TENDENCY NO CHANGE
WEATHER
FOG
CLOUDINESS
VERTICAL VISIBILITY 200  FT
TEMP / DEWPOINT
1 C / 1 C
ALTIMETER
30.03 IN HG
RECENT WEATHER
WIND SHEAR

TAF AMD CYBW 191332Z 1913/1924 14010KT P6SM OVC010 TEMPO 1913/1915 2SM BR OVC005 FM191500 16012KT P6SM SCT020 TEMPO 1915/1918 BKN020 FM191800 16012G22KT P6SM BKN040 RMK FCST BASED ON AUTO OBS. NXT FCST BY 191800Z=
AMENDED TAF
LOCATION

CYBW - CALGARY/SPRINGBANK/AB
VALIDITY [UTC]
19 MAY - 1332 to
20 MAY - 0000
 
TIMES
[UTC]
WIND
[DEGREES TRUE]
VISIBILITY
[STAT. MILES]
WEATHER
CLOUDINESS
[FEET AGL]
 
19 MAY - 1300 to
19 MAY - 1500
140 @ 10 KNOTS
6+
NIL
1000 OVERCAST
TEMPORARY CHANGES
19 MAY - 1300 to
19 MAY - 1500
 
2
MIST
500 OVERCAST
 
19 MAY - 1500 to
19 MAY - 1800
160 @ 12 KNOTS
6+
NIL
2000 SCATTERED
TEMPORARY CHANGES
19 MAY - 1500 to
19 MAY - 1800
 
 
 
2000 BROKEN
 
19 MAY - 1800 to
20 MAY - 0000
160 @ 12 KNOTS
GUSTS 22 KNOTS
6+
NIL
4000 BROKEN
REMARKS
THE FORECAST IS BASED ON AUTOMATIC OBSERVATIONS - THE NEXT FORECAST WILL BE ISSUED BY 1800 UTC ON DAY 19


Your time UTC time
Weather data provided by Environment Canada and NAV CANADA